sensor_id;sensor_type;location;lat;lon;timestamp;P1;durP1;ratioP1;P2;durP2;ratioP2
7607;SDS011;3845;48.120;11.534;2023-03-14T00:02:15;1.53;;;1.00;;
7607;SDS011;3845;48.120;11.534;2023-03-14T00:04:41;1.30;;;1.10;;
7607;SDS011;3845;48.120;11.534;2023-03-14T00:07:06;1.07;;;0.90;;
7607;SDS011;3845;48.120;11.534;2023-03-14T00:09:31;1.13;;;0.93;;
7607;SDS011;3845;48.120;11.534;2023-03-14T00:11:57;1.03;;;0.93;;
7607;SDS011;3845;48.120;11.534;2023-03-14T00:14:22;1.03;;;0.90;;
7607;SDS011;3845;48.120;11.534;2023-03-14T00:16:48;0.90;;;0.80;;
7607;SDS011;3845;48.120;11.534;2023-03-14T00:19:13;0.80;;;0.80;;
7607;SDS011;3845;48.120;11.534;2023-03-14T00:21:40;1.00;;;0.80;;
7607;SDS011;3845;48.120;11.534;2023-03-14T00:24:06;1.00;;;0.90;;
7607;SDS011;3845;48.120;11.534;2023-03-14T00:26:32;1.23;;;0.90;;
7607;SDS011;3845;48.120;11.534;2023-03-14T00:28:57;1.03;;;0.80;;
7607;SDS011;3845;48.120;11.534;2023-03-14T00:31:22;0.80;;;0.80;;
7607;SDS011;3845;48.120;11.534;2023-03-14T00:33:47;0.73;;;0.73;;
7607;SDS011;3845;48.120;11.534;2023-03-14T00:36:16;0.80;;;0.80;;
7607;SDS011;3845;48.120;11.534;2023-03-14T00:38:42;1.00;;;0.80;;
7607;SDS011;3845;48.120;11.534;2023-03-14T00:41:14;2.30;;;0.70;;
7607;SDS011;3845;48.120;11.534;2023-03-14T00:43:41;0.80;;;0.80;;
7607;SDS011;3845;48.120;11.534;2023-03-14T00:46:06;0.77;;;0.70;;
7607;SDS011;3845;48.120;11.534;2023-03-14T00:48:32;0.70;;;0.60;;
7607;SDS011;3845;48.120;11.534;2023-03-14T00:50:57;0.70;;;0.70;;
7607;SDS011;3845;48.120;11.534;2023-03-14T00:53:23;0.70;;;0.70;;
7607;SDS011;3845;48.120;11.534;2023-03-14T00:55:48;0.60;;;0.60;;
7607;SDS011;3845;48.120;11.534;2023-03-14T00:58:15;0.80;;;0.80;;
7607;SDS011;3845;48.120;11.534;2023-03-14T01:00:42;0.90;;;0.80;;
7607;SDS011;3845;48.120;11.534;2023-03-14T01:03:08;1.60;;;0.90;;
7607;SDS011;3845;48.120;11.534;2023-03-14T01:05:34;0.83;;;0.80;;
7607;SDS011;3845;48.120;11.534;2023-03-14T01:08:00;0.80;;;0.70;;
7607;SDS011;3845;48.120;11.534;2023-03-14T01:10:25;0.80;;;0.80;;
7607;SDS011;3845;48.120;11.534;2023-03-14T01:12:51;0.60;;;0.60;;
7607;SDS011;3845;48.120;11.534;2023-03-14T01:15:16;1.20;;;0.77;;
7607;SDS011;3845;48.120;11.534;2023-03-14T01:17:42;0.70;;;0.70;;
7607;SDS011;3845;48.120;11.534;2023-03-14T01:20:08;1.40;;;0.70;;
7607;SDS011;3845;48.120;11.534;2023-03-14T01:22:35;0.93;;;0.80;;
7607;SDS011;3845;48.120;11.534;2023-03-14T01:25:03;1.10;;;0.80;;
7607;SDS011;3845;48.120;11.534;2023-03-14T01:27:29;1.00;;;0.83;;
7607;SDS011;3845;48.120;11.534;2023-03-14T01:29:54;1.20;;;0.90;;
7607;SDS011;3845;48.120;11.534;2023-03-14T01:32:19;1.10;;;0.90;;
7607;SDS011;3845;48.120;11.534;2023-03-14T01:34:45;0.90;;;0.80;;
7607;SDS011;3845;48.120;11.534;2023-03-14T01:37:10;0.90;;;0.80;;
7607;SDS011;3845;48.120;11.534;2023-03-14T01:39:37;1.13;;;0.80;;
7607;SDS011;3845;48.120;11.534;2023-03-14T01:42:02;1.20;;;0.80;;
7607;SDS011;3845;48.120;11.534;2023-03-14T01:44:27;0.90;;;0.70;;
7607;SDS011;3845;48.120;11.534;2023-03-14T01:46:53;0.87;;;0.80;;
7607;SDS011;3845;48.120;11.534;2023-03-14T01:51:56;1.30;;;0.80;;
7607;SDS011;3845;48.120;11.534;2023-03-14T01:54:33;1.50;;;0.80;;
7607;SDS011;3845;48.120;11.534;2023-03-14T01:59:52;2.40;;;0.90;;
7607;SDS011;3845;48.120;11.534;2023-03-14T02:02:24;1.20;;;0.90;;
7607;SDS011;3845;48.120;11.534;2023-03-14T02:04:49;1.60;;;0.90;;
7607;SDS011;3845;48.120;11.534;2023-03-14T02:07:23;1.20;;;0.73;;
7607;SDS011;3845;48.120;11.534;2023-03-14T02:09:52;0.80;;;0.70;;
7607;SDS011;3845;48.120;11.534;2023-03-14T02:12:17;2.50;;;1.00;;
7607;SDS011;3845;48.120;11.534;2023-03-14T02:14:43;1.10;;;0.70;;
7607;SDS011;3845;48.120;11.534;2023-03-14T02:17:13;1.10;;;0.80;;
7607;SDS011;3845;48.120;11.534;2023-03-14T02:22:23;1.43;;;0.80;;
7607;SDS011;3845;48.120;11.534;2023-03-14T02:25:02;1.47;;;0.80;;
7607;SDS011;3845;48.120;11.534;2023-03-14T02:27:47;2.47;;;0.87;;
7607;SDS011;3845;48.120;11.534;2023-03-14T02:30:20;1.27;;;0.80;;
7607;SDS011;3845;48.120;11.534;2023-03-14T02:32:48;1.57;;;0.80;;
7607;SDS011;3845;48.120;11.534;2023-03-14T02:35:23;0.73;;;0.70;;
7607;SDS011;3845;48.120;11.534;2023-03-14T02:38:00;2.27;;;1.00;;
7607;SDS011;3845;48.120;11.534;2023-03-14T02:40:31;0.87;;;0.77;;
7607;SDS011;3845;48.120;11.534;2023-03-14T02:42:56;0.70;;;0.70;;
7607;SDS011;3845;48.120;11.534;2023-03-14T02:47:48;1.00;;;0.90;;
7607;SDS011;3845;48.120;11.534;2023-03-14T02:50:18;0.70;;;0.70;;
7607;SDS011;3845;48.120;11.534;2023-03-14T02:52:46;0.73;;;0.70;;
7607;SDS011;3845;48.120;11.534;2023-03-14T02:55:11;1.37;;;0.80;;
7607;SDS011;3845;48.120;11.534;2023-03-14T02:57:37;1.70;;;1.20;;
7607;SDS011;3845;48.120;11.534;2023-03-14T03:00:02;4.93;;;3.57;;
7607;SDS011;3845;48.120;11.534;2023-03-14T03:02:31;3.40;;;1.90;;
7607;SDS011;3845;48.120;11.534;2023-03-14T03:04:57;1.70;;;1.10;;
7607;SDS011;3845;48.120;11.534;2023-03-14T03:07:22;0.77;;;0.77;;
7607;SDS011;3845;48.120;11.534;2023-03-14T03:09:48;0.63;;;0.63;;
7607;SDS011;3845;48.120;11.534;2023-03-14T03:12:13;0.97;;;0.70;;
7607;SDS011;3845;48.120;11.534;2023-03-14T03:14:38;0.70;;;0.70;;
7607;SDS011;3845;48.120;11.534;2023-03-14T03:17:04;0.60;;;0.60;;
7607;SDS011;3845;48.120;11.534;2023-03-14T03:19:30;0.60;;;0.60;;
7607;SDS011;3845;48.120;11.534;2023-03-14T03:21:56;1.60;;;0.63;;
7607;SDS011;3845;48.120;11.534;2023-03-14T03:24:21;0.63;;;0.63;;
7607;SDS011;3845;48.120;11.534;2023-03-14T03:26:46;2.30;;;1.80;;
7607;SDS011;3845;48.120;11.534;2023-03-14T03:29:12;2.80;;;2.10;;
7607;SDS011;3845;48.120;11.534;2023-03-14T03:31:37;1.30;;;0.80;;
7607;SDS011;3845;48.120;11.534;2023-03-14T03:34:03;0.70;;;0.70;;
7607;SDS011;3845;48.120;11.534;2023-03-14T03:36:28;0.87;;;0.60;;
7607;SDS011;3845;48.120;11.534;2023-03-14T03:38:54;1.80;;;0.80;;
7607;SDS011;3845;48.120;11.534;2023-03-14T03:41:19;0.93;;;0.60;;
7607;SDS011;3845;48.120;11.534;2023-03-14T03:43:44;0.60;;;0.60;;
7607;SDS011;3845;48.120;11.534;2023-03-14T03:46:10;1.07;;;0.70;;
7607;SDS011;3845;48.120;11.534;2023-03-14T03:48:35;0.90;;;0.50;;
7607;SDS011;3845;48.120;11.534;2023-03-14T03:51:01;0.50;;;0.50;;
7607;SDS011;3845;48.120;11.534;2023-03-14T03:53:26;0.40;;;0.40;;
7607;SDS011;3845;48.120;11.534;2023-03-14T03:55:52;0.70;;;0.60;;
7607;SDS011;3845;48.120;11.534;2023-03-14T03:58:17;0.70;;;0.70;;
7607;SDS011;3845;48.120;11.534;2023-03-14T04:00:43;0.50;;;0.50;;
7607;SDS011;3845;48.120;11.534;2023-03-14T04:03:08;0.50;;;0.50;;
7607;SDS011;3845;48.120;11.534;2023-03-14T04:05:33;0.53;;;0.53;;
7607;SDS011;3845;48.120;11.534;2023-03-14T04:07:59;0.57;;;0.57;;
7607;SDS011;3845;48.120;11.534;2023-03-14T04:10:25;0.60;;;0.60;;
7607;SDS011;3845;48.120;11.534;2023-03-14T04:12:50;0.50;;;0.50;;
7607;SDS011;3845;48.120;11.534;2023-03-14T04:15:15;0.50;;;0.50;;
7607;SDS011;3845;48.120;11.534;2023-03-14T04:17:40;0.50;;;0.50;;
7607;SDS011;3845;48.120;11.534;2023-03-14T04:20:06;0.83;;;0.60;;
7607;SDS011;3845;48.120;11.534;2023-03-14T04:22:35;0.80;;;0.60;;
7607;SDS011;3845;48.120;11.534;2023-03-14T04:25:01;0.67;;;0.60;;
7607;SDS011;3845;48.120;11.534;2023-03-14T04:27:28;1.13;;;0.70;;
7607;SDS011;3845;48.120;11.534;2023-03-14T04:29:53;0.50;;;0.50;;
7607;SDS011;3845;48.120;11.534;2023-03-14T04:32:18;1.27;;;0.40;;
7607;SDS011;3845;48.120;11.534;2023-03-14T04:34:44;0.47;;;0.40;;
7607;SDS011;3845;48.120;11.534;2023-03-14T04:37:09;0.50;;;0.50;;
7607;SDS011;3845;48.120;11.534;2023-03-14T04:39:34;0.50;;;0.50;;
7607;SDS011;3845;48.120;11.534;2023-03-14T04:41:59;0.77;;;0.50;;
7607;SDS011;3845;48.120;11.534;2023-03-14T04:44:25;0.70;;;0.70;;
7607;SDS011;3845;48.120;11.534;2023-03-14T04:46:50;0.87;;;0.77;;
7607;SDS011;3845;48.120;11.534;2023-03-14T04:49:15;1.93;;;1.00;;
7607;SDS011;3845;48.120;11.534;2023-03-14T04:51:41;1.00;;;0.90;;
7607;SDS011;3845;48.120;11.534;2023-03-14T04:54:07;1.07;;;0.90;;
7607;SDS011;3845;48.120;11.534;2023-03-14T04:56:32;2.57;;;2.10;;
7607;SDS011;3845;48.120;11.534;2023-03-14T04:58:57;2.37;;;2.10;;
7607;SDS011;3845;48.120;11.534;2023-03-14T05:01:23;1.50;;;1.23;;
7607;SDS011;3845;48.120;11.534;2023-03-14T05:03:48;1.10;;;1.00;;
7607;SDS011;3845;48.120;11.534;2023-03-14T05:06:13;0.80;;;0.80;;
7607;SDS011;3845;48.120;11.534;2023-03-14T05:08:39;0.57;;;0.57;;
7607;SDS011;3845;48.120;11.534;2023-03-14T05:11:04;0.60;;;0.60;;
7607;SDS011;3845;48.120;11.534;2023-03-14T05:13:29;0.60;;;0.60;;
7607;SDS011;3845;48.120;11.534;2023-03-14T05:16:02;0.43;;;0.43;;
7607;SDS011;3845;48.120;11.534;2023-03-14T05:18:28;1.40;;;0.70;;
7607;SDS011;3845;48.120;11.534;2023-03-14T05:20:53;0.50;;;0.50;;
7607;SDS011;3845;48.120;11.534;2023-03-14T05:23:18;0.70;;;0.70;;
7607;SDS011;3845;48.120;11.534;2023-03-14T05:25:44;0.50;;;0.50;;
7607;SDS011;3845;48.120;11.534;2023-03-14T05:28:09;0.50;;;0.50;;
7607;SDS011;3845;48.120;11.534;2023-03-14T05:30:34;0.70;;;0.70;;
7607;SDS011;3845;48.120;11.534;2023-03-14T05:33:00;0.70;;;0.70;;
7607;SDS011;3845;48.120;11.534;2023-03-14T05:35:25;3.20;;;2.23;;
7607;SDS011;3845;48.120;11.534;2023-03-14T05:37:50;3.10;;;2.37;;
7607;SDS011;3845;48.120;11.534;2023-03-14T05:40:15;1.57;;;1.40;;
7607;SDS011;3845;48.120;11.534;2023-03-14T05:42:41;1.40;;;1.10;;
7607;SDS011;3845;48.120;11.534;2023-03-14T05:45:06;1.33;;;1.00;;
7607;SDS011;3845;48.120;11.534;2023-03-14T05:47:32;1.30;;;1.00;;
7607;SDS011;3845;48.120;11.534;2023-03-14T05:49:57;1.07;;;0.77;;
7607;SDS011;3845;48.120;11.534;2023-03-14T05:52:22;1.07;;;0.90;;
7607;SDS011;3845;48.120;11.534;2023-03-14T05:54:47;0.60;;;0.60;;
7607;SDS011;3845;48.120;11.534;2023-03-14T05:57:13;0.70;;;0.70;;
7607;SDS011;3845;48.120;11.534;2023-03-14T05:59:38;1.90;;;1.53;;
7607;SDS011;3845;48.120;11.534;2023-03-14T06:02:03;2.10;;;1.73;;
7607;SDS011;3845;48.120;11.534;2023-03-14T06:04:29;1.90;;;1.70;;
7607;SDS011;3845;48.120;11.534;2023-03-14T06:06:54;1.43;;;1.20;;
7607;SDS011;3845;48.120;11.534;2023-03-14T06:09:20;1.03;;;0.90;;
7607;SDS011;3845;48.120;11.534;2023-03-14T06:11:47;0.77;;;0.77;;
7607;SDS011;3845;48.120;11.534;2023-03-14T06:14:12;0.80;;;0.73;;
7607;SDS011;3845;48.120;11.534;2023-03-14T06:16:38;0.70;;;0.70;;
7607;SDS011;3845;48.120;11.534;2023-03-14T06:19:03;0.80;;;0.80;;
7607;SDS011;3845;48.120;11.534;2023-03-14T06:21:28;0.60;;;0.60;;
7607;SDS011;3845;48.120;11.534;2023-03-14T06:23:54;0.83;;;0.77;;
7607;SDS011;3845;48.120;11.534;2023-03-14T06:26:19;1.70;;;1.20;;
7607;SDS011;3845;48.120;11.534;2023-03-14T06:28:44;1.23;;;1.00;;
7607;SDS011;3845;48.120;11.534;2023-03-14T06:31:10;0.97;;;0.83;;
7607;SDS011;3845;48.120;11.534;2023-03-14T06:33:35;0.70;;;0.70;;
7607;SDS011;3845;48.120;11.534;2023-03-14T06:36:00;0.87;;;0.73;;
7607;SDS011;3845;48.120;11.534;2023-03-14T06:38:26;0.83;;;0.80;;
7607;SDS011;3845;48.120;11.534;2023-03-14T06:40:51;1.00;;;0.90;;
7607;SDS011;3845;48.120;11.534;2023-03-14T06:43:16;1.00;;;0.87;;
7607;SDS011;3845;48.120;11.534;2023-03-14T06:45:41;0.70;;;0.70;;
7607;SDS011;3845;48.120;11.534;2023-03-14T06:48:07;0.97;;;0.83;;
7607;SDS011;3845;48.120;11.534;2023-03-14T06:50:32;1.90;;;1.67;;
7607;SDS011;3845;48.120;11.534;2023-03-14T06:52:57;3.37;;;2.80;;
7607;SDS011;3845;48.120;11.534;2023-03-14T06:55:22;7.27;;;5.70;;
7607;SDS011;3845;48.120;11.534;2023-03-14T06:57:48;10.17;;;7.37;;
7607;SDS011;3845;48.120;11.534;2023-03-14T07:00:13;5.80;;;4.20;;
7607;SDS011;3845;48.120;11.534;2023-03-14T07:02:39;3.90;;;2.87;;
7607;SDS011;3845;48.120;11.534;2023-03-14T07:05:05;3.27;;;2.50;;
7607;SDS011;3845;48.120;11.534;2023-03-14T07:07:31;3.00;;;2.13;;
7607;SDS011;3845;48.120;11.534;2023-03-14T07:09:56;2.20;;;1.80;;
7607;SDS011;3845;48.120;11.534;2023-03-14T07:12:21;2.30;;;1.27;;
7607;SDS011;3845;48.120;11.534;2023-03-14T07:14:47;1.53;;;1.30;;
7607;SDS011;3845;48.120;11.534;2023-03-14T07:17:12;1.70;;;1.20;;
7607;SDS011;3845;48.120;11.534;2023-03-14T07:19:37;2.07;;;1.20;;
7607;SDS011;3845;48.120;11.534;2023-03-14T07:22:03;2.10;;;1.10;;
7607;SDS011;3845;48.120;11.534;2023-03-14T07:24:29;1.60;;;1.20;;
7607;SDS011;3845;48.120;11.534;2023-03-14T07:26:54;2.43;;;1.00;;
7607;SDS011;3845;48.120;11.534;2023-03-14T07:29:19;1.00;;;0.90;;
7607;SDS011;3845;48.120;11.534;2023-03-14T07:31:45;0.87;;;0.87;;
7607;SDS011;3845;48.120;11.534;2023-03-14T07:34:10;1.60;;;0.90;;
7607;SDS011;3845;48.120;11.534;2023-03-14T07:36:35;2.07;;;1.50;;
7607;SDS011;3845;48.120;11.534;2023-03-14T07:39:00;1.80;;;1.40;;
7607;SDS011;3845;48.120;11.534;2023-03-14T07:41:26;2.80;;;1.97;;
7607;SDS011;3845;48.120;11.534;2023-03-14T07:43:51;1.60;;;1.33;;
7607;SDS011;3845;48.120;11.534;2023-03-14T07:46:16;1.60;;;1.30;;
7607;SDS011;3845;48.120;11.534;2023-03-14T07:48:42;1.43;;;1.23;;
7607;SDS011;3845;48.120;11.534;2023-03-14T07:51:08;2.43;;;1.03;;
7607;SDS011;3845;48.120;11.534;2023-03-14T07:53:33;1.00;;;0.90;;
7607;SDS011;3845;48.120;11.534;2023-03-14T07:55:59;1.53;;;0.90;;
7607;SDS011;3845;48.120;11.534;2023-03-14T07:58:24;1.03;;;0.93;;
7607;SDS011;3845;48.120;11.534;2023-03-14T08:00:50;1.00;;;0.80;;
7607;SDS011;3845;48.120;11.534;2023-03-14T08:03:16;0.83;;;0.83;;
7607;SDS011;3845;48.120;11.534;2023-03-14T08:05:42;4.83;;;3.47;;
7607;SDS011;3845;48.120;11.534;2023-03-14T08:08:08;6.03;;;3.90;;
7607;SDS011;3845;48.120;11.534;2023-03-14T08:10:33;2.60;;;1.70;;
7607;SDS011;3845;48.120;11.534;2023-03-14T08:12:59;1.40;;;1.20;;
7607;SDS011;3845;48.120;11.534;2023-03-14T08:15:25;1.60;;;1.10;;
7607;SDS011;3845;48.120;11.534;2023-03-14T08:17:51;1.13;;;0.90;;
7607;SDS011;3845;48.120;11.534;2023-03-14T08:20:18;1.83;;;0.80;;
7607;SDS011;3845;48.120;11.534;2023-03-14T08:22:44;2.23;;;1.00;;
7607;SDS011;3845;48.120;11.534;2023-03-14T08:25:10;1.57;;;0.83;;
7607;SDS011;3845;48.120;11.534;2023-03-14T08:27:35;1.50;;;0.70;;
7607;SDS011;3845;48.120;11.534;2023-03-14T08:30:03;1.43;;;0.90;;
7607;SDS011;3845;48.120;11.534;2023-03-14T08:32:29;2.67;;;0.80;;
7607;SDS011;3845;48.120;11.534;2023-03-14T08:34:54;0.70;;;0.70;;
7607;SDS011;3845;48.120;11.534;2023-03-14T08:37:20;1.30;;;1.00;;
7607;SDS011;3845;48.120;11.534;2023-03-14T08:39:45;1.97;;;0.90;;
7607;SDS011;3845;48.120;11.534;2023-03-14T08:42:10;3.23;;;0.90;;
7607;SDS011;3845;48.120;11.534;2023-03-14T08:44:36;1.10;;;0.80;;
7607;SDS011;3845;48.120;11.534;2023-03-14T08:47:01;1.90;;;0.90;;
7607;SDS011;3845;48.120;11.534;2023-03-14T08:49:26;1.53;;;0.83;;
7607;SDS011;3845;48.120;11.534;2023-03-14T08:51:51;1.00;;;0.90;;
7607;SDS011;3845;48.120;11.534;2023-03-14T08:54:17;0.70;;;0.70;;
7607;SDS011;3845;48.120;11.534;2023-03-14T08:56:43;1.43;;;0.73;;
7607;SDS011;3845;48.120;11.534;2023-03-14T08:59:08;1.20;;;0.90;;
7607;SDS011;3845;48.120;11.534;2023-03-14T09:01:35;1.00;;;0.80;;
7607;SDS011;3845;48.120;11.534;2023-03-14T09:04:01;1.10;;;0.80;;
7607;SDS011;3845;48.120;11.534;2023-03-14T09:06:26;0.83;;;0.60;;
7607;SDS011;3845;48.120;11.534;2023-03-14T09:08:51;2.27;;;1.77;;
7607;SDS011;3845;48.120;11.534;2023-03-14T09:11:16;1.97;;;1.47;;
7607;SDS011;3845;48.120;11.534;2023-03-14T09:13:43;2.53;;;1.60;;
7607;SDS011;3845;48.120;11.534;2023-03-14T09:16:08;2.53;;;1.63;;
7607;SDS011;3845;48.120;11.534;2023-03-14T09:18:34;1.07;;;0.97;;
7607;SDS011;3845;48.120;11.534;2023-03-14T09:20:59;1.80;;;1.60;;
7607;SDS011;3845;48.120;11.534;2023-03-14T09:23:25;2.20;;;1.80;;
7607;SDS011;3845;48.120;11.534;2023-03-14T09:25:59;2.60;;;1.80;;
7607;SDS011;3845;48.120;11.534;2023-03-14T09:28:25;3.10;;;1.30;;
7607;SDS011;3845;48.120;11.534;2023-03-14T09:30:50;2.00;;;1.40;;
7607;SDS011;3845;48.120;11.534;2023-03-14T09:33:16;5.90;;;4.27;;
7607;SDS011;3845;48.120;11.534;2023-03-14T09:35:42;4.43;;;2.53;;
7607;SDS011;3845;48.120;11.534;2023-03-14T09:38:07;1.87;;;1.50;;
7607;SDS011;3845;48.120;11.534;2023-03-14T09:40:36;1.53;;;1.20;;
7607;SDS011;3845;48.120;11.534;2023-03-14T09:43:02;1.57;;;0.90;;
7607;SDS011;3845;48.120;11.534;2023-03-14T09:47:56;1.07;;;0.97;;
7607;SDS011;3845;48.120;11.534;2023-03-14T09:50:21;1.07;;;0.97;;
7607;SDS011;3845;48.120;11.534;2023-03-14T09:52:51;1.97;;;1.07;;
7607;SDS011;3845;48.120;11.534;2023-03-14T09:55:22;1.93;;;1.00;;
7607;SDS011;3845;48.120;11.534;2023-03-14T09:57:51;1.10;;;0.90;;
7607;SDS011;3845;48.120;11.534;2023-03-14T10:00:21;1.00;;;0.90;;
7607;SDS011;3845;48.120;11.534;2023-03-14T10:05:39;1.27;;;1.00;;
7607;SDS011;3845;48.120;11.534;2023-03-14T10:08:05;0.87;;;0.70;;
7607;SDS011;3845;48.120;11.534;2023-03-14T10:10:31;2.60;;;0.90;;
7607;SDS011;3845;48.120;11.534;2023-03-14T10:12:57;3.07;;;1.20;;
7607;SDS011;3845;48.120;11.534;2023-03-14T10:15:48;7.40;;;4.20;;
7607;SDS011;3845;48.120;11.534;2023-03-14T10:18:22;3.60;;;2.00;;
7607;SDS011;3845;48.120;11.534;2023-03-14T10:20:49;2.00;;;1.80;;
7607;SDS011;3845;48.120;11.534;2023-03-14T10:25:41;3.70;;;1.97;;
7607;SDS011;3845;48.120;11.534;2023-03-14T10:28:11;1.33;;;1.10;;
7607;SDS011;3845;48.120;11.534;2023-03-14T10:30:49;1.83;;;1.20;;
7607;SDS011;3845;48.120;11.534;2023-03-14T10:35:51;1.13;;;1.00;;
7607;SDS011;3845;48.120;11.534;2023-03-14T10:38:22;2.83;;;1.93;;
7607;SDS011;3845;48.120;11.534;2023-03-14T10:40:49;3.73;;;1.53;;
7607;SDS011;3845;48.120;11.534;2023-03-14T10:43:18;6.00;;;1.87;;
7607;SDS011;3845;48.120;11.534;2023-03-14T10:45:51;1.00;;;0.80;;
7607;SDS011;3845;48.120;11.534;2023-03-14T10:48:33;1.40;;;1.00;;
7607;SDS011;3845;48.120;11.534;2023-03-14T10:53:25;1.00;;;0.77;;
7607;SDS011;3845;48.120;11.534;2023-03-14T10:55:51;1.40;;;0.70;;
7607;SDS011;3845;48.120;11.534;2023-03-14T10:58:23;1.00;;;0.70;;
7607;SDS011;3845;48.120;11.534;2023-03-14T11:00:52;1.13;;;0.90;;
7607;SDS011;3845;48.120;11.534;2023-03-14T11:03:23;0.93;;;0.80;;
7607;SDS011;3845;48.120;11.534;2023-03-14T11:05:51;1.67;;;1.57;;
7607;SDS011;3845;48.120;11.534;2023-03-14T11:08:29;4.03;;;2.67;;
7607;SDS011;3845;48.120;11.534;2023-03-14T11:11:06;11.60;;;3.23;;
7607;SDS011;3845;48.120;11.534;2023-03-14T11:16:30;3.83;;;1.90;;
7607;SDS011;3845;48.120;11.534;2023-03-14T11:21:59;1.23;;;0.70;;
7607;SDS011;3845;48.120;11.534;2023-03-14T11:29:48;1.27;;;0.73;;
7607;SDS011;3845;48.120;11.534;2023-03-14T11:32:25;1.97;;;0.63;;
7607;SDS011;3845;48.120;11.534;2023-03-14T11:35:23;4.20;;;2.30;;
7607;SDS011;3845;48.120;11.534;2023-03-14T11:37:53;5.00;;;3.70;;
7607;SDS011;3845;48.120;11.534;2023-03-14T11:40:22;3.00;;;2.17;;
7607;SDS011;3845;48.120;11.534;2023-03-14T11:43:11;1.10;;;0.70;;
7607;SDS011;3845;48.120;11.534;2023-03-14T11:45:38;0.77;;;0.70;;
7607;SDS011;3845;48.120;11.534;2023-03-14T11:50:39;1.20;;;0.90;;
7607;SDS011;3845;48.120;11.534;2023-03-14T11:53:09;7.17;;;4.20;;
7607;SDS011;3845;48.120;11.534;2023-03-14T11:55:39;0.90;;;0.83;;
7607;SDS011;3845;48.120;11.534;2023-03-14T11:58:11;1.10;;;1.00;;
7607;SDS011;3845;48.120;11.534;2023-03-14T12:00:40;1.93;;;1.40;;
7607;SDS011;3845;48.120;11.534;2023-03-14T12:03:11;2.27;;;1.43;;
7607;SDS011;3845;48.120;11.534;2023-03-14T12:05:46;1.90;;;1.40;;
7607;SDS011;3845;48.120;11.534;2023-03-14T12:11:11;0.80;;;0.80;;
7607;SDS011;3845;48.120;11.534;2023-03-14T12:13:38;1.00;;;0.80;;
7607;SDS011;3845;48.120;11.534;2023-03-14T12:16:05;1.20;;;0.90;;
7607;SDS011;3845;48.120;11.534;2023-03-14T12:18:33;0.83;;;0.80;;
7607;SDS011;3845;48.120;11.534;2023-03-14T12:21:03;1.17;;;0.90;;
7607;SDS011;3845;48.120;11.534;2023-03-14T12:26:24;1.13;;;0.90;;
7607;SDS011;3845;48.120;11.534;2023-03-14T12:45:02;0.57;;;0.57;;
7607;SDS011;3845;48.120;11.534;2023-03-14T12:50:07;0.90;;;0.60;;
7607;SDS011;3845;48.120;11.534;2023-03-14T12:52:49;3.10;;;1.97;;
7607;SDS011;3845;48.120;11.534;2023-03-14T12:55:21;3.07;;;2.67;;
7607;SDS011;3845;48.120;11.534;2023-03-14T13:00:40;0.60;;;0.60;;
7607;SDS011;3845;48.120;11.534;2023-03-14T13:05:57;1.10;;;0.67;;
7607;SDS011;3845;48.120;11.534;2023-03-14T13:08:37;0.80;;;0.70;;
7607;SDS011;3845;48.120;11.534;2023-03-14T13:11:05;0.60;;;0.60;;
7607;SDS011;3845;48.120;11.534;2023-03-14T13:13:34;0.80;;;0.60;;
7607;SDS011;3845;48.120;11.534;2023-03-14T13:16:01;2.07;;;1.00;;
7607;SDS011;3845;48.120;11.534;2023-03-14T13:20:59;1.00;;;0.70;;
7607;SDS011;3845;48.120;11.534;2023-03-14T13:23:29;1.33;;;1.10;;
7607;SDS011;3845;48.120;11.534;2023-03-14T13:25:59;2.07;;;0.90;;
7607;SDS011;3845;48.120;11.534;2023-03-14T13:28:25;0.53;;;0.53;;
7607;SDS011;3845;48.120;11.534;2023-03-14T13:30:54;2.30;;;0.80;;
7607;SDS011;3845;48.120;11.534;2023-03-14T13:33:26;1.43;;;0.90;;
7607;SDS011;3845;48.120;11.534;2023-03-14T13:35:59;0.80;;;0.80;;
7607;SDS011;3845;48.120;11.534;2023-03-14T13:38:28;1.80;;;0.60;;
7607;SDS011;3845;48.120;11.534;2023-03-14T13:40:55;0.80;;;0.80;;
7607;SDS011;3845;48.120;11.534;2023-03-14T13:43:36;0.80;;;0.80;;
7607;SDS011;3845;48.120;11.534;2023-03-14T13:46:05;1.30;;;1.20;;
7607;SDS011;3845;48.120;11.534;2023-03-14T13:48:40;0.93;;;0.70;;
7607;SDS011;3845;48.120;11.534;2023-03-14T13:51:10;0.60;;;0.60;;
7607;SDS011;3845;48.120;11.534;2023-03-14T13:56:09;0.70;;;0.70;;
7607;SDS011;3845;48.120;11.534;2023-03-14T13:58:35;0.60;;;0.60;;
7607;SDS011;3845;48.120;11.534;2023-03-14T14:01:03;0.60;;;0.60;;
7607;SDS011;3845;48.120;11.534;2023-03-14T14:03:31;0.63;;;0.63;;
7607;SDS011;3845;48.120;11.534;2023-03-14T14:05:58;0.60;;;0.60;;
7607;SDS011;3845;48.120;11.534;2023-03-14T14:08:24;2.20;;;1.70;;
7607;SDS011;3845;48.120;11.534;2023-03-14T14:10:50;1.20;;;1.10;;
7607;SDS011;3845;48.120;11.534;2023-03-14T14:13:20;0.70;;;0.70;;
7607;SDS011;3845;48.120;11.534;2023-03-14T14:15:48;0.87;;;0.80;;
7607;SDS011;3845;48.120;11.534;2023-03-14T14:18:15;2.63;;;0.70;;
7607;SDS011;3845;48.120;11.534;2023-03-14T14:20:43;0.80;;;0.80;;
7607;SDS011;3845;48.120;11.534;2023-03-14T14:23:10;1.07;;;0.80;;
7607;SDS011;3845;48.120;11.534;2023-03-14T14:25:37;1.37;;;0.80;;
7607;SDS011;3845;48.120;11.534;2023-03-14T14:33:42;1.00;;;0.90;;
7607;SDS011;3845;48.120;11.534;2023-03-14T14:36:16;2.10;;;0.70;;
7607;SDS011;3845;48.120;11.534;2023-03-14T14:38:48;0.93;;;0.80;;
7607;SDS011;3845;48.120;11.534;2023-03-14T14:41:14;0.70;;;0.70;;
7607;SDS011;3845;48.120;11.534;2023-03-14T14:43:40;1.90;;;0.90;;
7607;SDS011;3845;48.120;11.534;2023-03-14T14:46:06;0.67;;;0.67;;
7607;SDS011;3845;48.120;11.534;2023-03-14T14:48:35;0.63;;;0.63;;
7607;SDS011;3845;48.120;11.534;2023-03-14T14:51:02;0.60;;;0.60;;
7607;SDS011;3845;48.120;11.534;2023-03-14T14:53:39;2.00;;;1.37;;
7607;SDS011;3845;48.120;11.534;2023-03-14T14:56:07;1.60;;;0.60;;
7607;SDS011;3845;48.120;11.534;2023-03-14T14:58:40;0.60;;;0.60;;
7607;SDS011;3845;48.120;11.534;2023-03-14T15:01:16;0.70;;;0.70;;
7607;SDS011;3845;48.120;11.534;2023-03-14T15:03:44;0.60;;;0.60;;
7607;SDS011;3845;48.120;11.534;2023-03-14T15:06:12;2.03;;;0.70;;
7607;SDS011;3845;48.120;11.534;2023-03-14T15:08:38;5.00;;;3.63;;
7607;SDS011;3845;48.120;11.534;2023-03-14T15:11:04;4.87;;;2.47;;
7607;SDS011;3845;48.120;11.534;2023-03-14T15:13:29;1.50;;;1.00;;
7607;SDS011;3845;48.120;11.534;2023-03-14T15:15:55;1.20;;;1.00;;
7607;SDS011;3845;48.120;11.534;2023-03-14T15:18:21;4.27;;;1.50;;
7607;SDS011;3845;48.120;11.534;2023-03-14T15:20:47;1.53;;;1.10;;
7607;SDS011;3845;48.120;11.534;2023-03-14T15:23:13;1.53;;;1.30;;
7607;SDS011;3845;48.120;11.534;2023-03-14T15:25:40;1.30;;;1.07;;
7607;SDS011;3845;48.120;11.534;2023-03-14T15:28:20;0.70;;;0.70;;
7607;SDS011;3845;48.120;11.534;2023-03-14T15:30:50;2.03;;;1.50;;
7607;SDS011;3845;48.120;11.534;2023-03-14T15:33:17;1.50;;;1.00;;
7607;SDS011;3845;48.120;11.534;2023-03-14T15:35:43;1.60;;;0.90;;
7607;SDS011;3845;48.120;11.534;2023-03-14T15:38:12;1.03;;;0.90;;
7607;SDS011;3845;48.120;11.534;2023-03-14T15:40:38;2.13;;;1.47;;
7607;SDS011;3845;48.120;11.534;2023-03-14T15:43:04;2.50;;;2.13;;
7607;SDS011;3845;48.120;11.534;2023-03-14T15:45:29;1.73;;;1.10;;
7607;SDS011;3845;48.120;11.534;2023-03-14T15:47:55;2.73;;;1.00;;
7607;SDS011;3845;48.120;11.534;2023-03-14T15:50:20;3.47;;;1.53;;
7607;SDS011;3845;48.120;11.534;2023-03-14T15:52:46;2.60;;;1.40;;
7607;SDS011;3845;48.120;11.534;2023-03-14T15:55:11;1.93;;;1.33;;
7607;SDS011;3845;48.120;11.534;2023-03-14T15:57:36;1.70;;;1.10;;
7607;SDS011;3845;48.120;11.534;2023-03-14T16:00:02;2.47;;;1.27;;
7607;SDS011;3845;48.120;11.534;2023-03-14T16:02:29;1.30;;;1.10;;
7607;SDS011;3845;48.120;11.534;2023-03-14T16:04:54;2.30;;;1.50;;
7607;SDS011;3845;48.120;11.534;2023-03-14T16:07:20;1.60;;;1.10;;
7607;SDS011;3845;48.120;11.534;2023-03-14T16:09:45;1.20;;;1.00;;
7607;SDS011;3845;48.120;11.534;2023-03-14T16:12:10;1.70;;;1.10;;
7607;SDS011;3845;48.120;11.534;2023-03-14T16:14:36;2.60;;;1.10;;
7607;SDS011;3845;48.120;11.534;2023-03-14T16:17:01;1.97;;;1.20;;
7607;SDS011;3845;48.120;11.534;2023-03-14T16:19:26;1.10;;;1.00;;